sensor_id;sensor_type;location;lat;lon;timestamp;temperature;humidity
46676;DHT22;32412;51.478;5.694;2023-09-12T00:02:05;19.10;99.90
46676;DHT22;32412;51.478;5.694;2023-09-12T00:04:30;19.20;99.90
46676;DHT22;32412;51.478;5.694;2023-09-12T00:06:56;19.30;99.90
46676;DHT22;32412;51.478;5.694;2023-09-12T00:09:22;19.20;99.90
46676;DHT22;32412;51.478;5.694;2023-09-12T00:11:48;19.20;99.90
46676;DHT22;32412;51.478;5.694;2023-09-12T00:14:17;19.10;99.90
46676;DHT22;32412;51.478;5.694;2023-09-12T00:16:43;19.00;99.90
46676;DHT22;32412;51.478;5.694;2023-09-12T00:19:09;19.00;99.90
46676;DHT22;32412;51.478;5.694;2023-09-12T00:21:34;18.90;99.90
46676;DHT22;32412;51.478;5.694;2023-09-12T00:24:00;18.80;99.90
46676;DHT22;32412;51.478;5.694;2023-09-12T00:26:26;18.80;99.90
46676;DHT22;32412;51.478;5.694;2023-09-12T00:28:52;18.80;99.90
46676;DHT22;32412;51.478;5.694;2023-09-12T00:31:18;18.80;99.90
46676;DHT22;32412;51.478;5.694;2023-09-12T00:33:43;18.70;99.90
46676;DHT22;32412;51.478;5.694;2023-09-12T00:36:09;18.70;99.90
46676;DHT22;32412;51.478;5.694;2023-09-12T00:38:35;18.80;99.90
46676;DHT22;32412;51.478;5.694;2023-09-12T00:41:00;18.70;99.90
46676;DHT22;32412;51.478;5.694;2023-09-12T00:43:26;18.60;99.90
46676;DHT22;32412;51.478;5.694;2023-09-12T00:45:52;18.50;99.90
46676;DHT22;32412;51.478;5.694;2023-09-12T00:48:18;18.60;99.90
46676;DHT22;32412;51.478;5.694;2023-09-12T00:50:46;18.50;99.90
46676;DHT22;32412;51.478;5.694;2023-09-12T00:53:13;18.40;99.90
46676;DHT22;32412;51.478;5.694;2023-09-12T00:55:42;18.40;99.90
46676;DHT22;32412;51.478;5.694;2023-09-12T00:58:09;18.40;99.90
46676;DHT22;32412;51.478;5.694;2023-09-12T01:00:35;18.40;99.90
46676;DHT22;32412;51.478;5.694;2023-09-12T01:03:01;18.40;99.90
46676;DHT22;32412;51.478;5.694;2023-09-12T01:05:28;18.30;99.90
46676;DHT22;32412;51.478;5.694;2023-09-12T01:07:54;18.30;99.90
46676;DHT22;32412;51.478;5.694;2023-09-12T01:10:20;18.20;99.90
46676;DHT22;32412;51.478;5.694;2023-09-12T01:12:46;18.10;99.90
46676;DHT22;32412;51.478;5.694;2023-09-12T01:15:11;18.10;99.90
46676;DHT22;32412;51.478;5.694;2023-09-12T01:17:43;18.00;99.90
46676;DHT22;32412;51.478;5.694;2023-09-12T01:20:14;18.00;99.90
46676;DHT22;32412;51.478;5.694;2023-09-12T01:28:23;17.90;99.90
46676;DHT22;32412;51.478;5.694;2023-09-12T01:30:51;18.00;99.90
46676;DHT22;32412;51.478;5.694;2023-09-12T01:33:17;17.90;99.90
46676;DHT22;32412;51.478;5.694;2023-09-12T01:35:43;17.90;99.90
46676;DHT22;32412;51.478;5.694;2023-09-12T01:38:09;17.90;99.90
46676;DHT22;32412;51.478;5.694;2023-09-12T01:40:48;17.90;99.90
46676;DHT22;32412;51.478;5.694;2023-09-12T01:43:17;17.90;99.90
46676;DHT22;32412;51.478;5.694;2023-09-12T01:45:55;17.90;99.90
46676;DHT22;32412;51.478;5.694;2023-09-12T01:48:23;17.90;99.90
46676;DHT22;32412;51.478;5.694;2023-09-12T01:50:52;18.00;99.90
46676;DHT22;32412;51.478;5.694;2023-09-12T01:53:18;17.90;99.90
46676;DHT22;32412;51.478;5.694;2023-09-12T01:55:45;17.90;99.90
46676;DHT22;32412;51.478;5.694;2023-09-12T01:58:12;18.00;99.90
46676;DHT22;32412;51.478;5.694;2023-09-12T02:00:40;17.90;99.90
46676;DHT22;32412;51.478;5.694;2023-09-12T02:03:06;17.90;99.90
46676;DHT22;32412;51.478;5.694;2023-09-12T02:05:32;18.00;99.90
46676;DHT22;32412;51.478;5.694;2023-09-12T02:07:57;18.00;99.90
46676;DHT22;32412;51.478;5.694;2023-09-12T02:10:25;18.00;99.90
46676;DHT22;32412;51.478;5.694;2023-09-12T02:12:51;17.90;99.90
46676;DHT22;32412;51.478;5.694;2023-09-12T02:15:17;17.90;99.90
46676;DHT22;32412;51.478;5.694;2023-09-12T02:17:43;17.90;99.90
46676;DHT22;32412;51.478;5.694;2023-09-12T02:20:09;17.90;99.90
46676;DHT22;32412;51.478;5.694;2023-09-12T02:22:35;17.80;99.90
46676;DHT22;32412;51.478;5.694;2023-09-12T02:25:03;17.80;99.90
46676;DHT22;32412;51.478;5.694;2023-09-12T02:27:29;17.80;99.90
46676;DHT22;32412;51.478;5.694;2023-09-12T02:29:55;17.80;99.90
46676;DHT22;32412;51.478;5.694;2023-09-12T02:32:21;17.80;99.90
46676;DHT22;32412;51.478;5.694;2023-09-12T02:34:46;17.80;99.90
46676;DHT22;32412;51.478;5.694;2023-09-12T02:37:12;17.80;99.90
46676;DHT22;32412;51.478;5.694;2023-09-12T02:39:38;17.80;99.90
46676;DHT22;32412;51.478;5.694;2023-09-12T02:42:03;17.80;99.90
46676;DHT22;32412;51.478;5.694;2023-09-12T02:44:29;17.70;99.90
46676;DHT22;32412;51.478;5.694;2023-09-12T02:46:58;17.70;99.90
46676;DHT22;32412;51.478;5.694;2023-09-12T02:49:23;17.70;99.90
46676;DHT22;32412;51.478;5.694;2023-09-12T02:51:49;17.70;99.90
46676;DHT22;32412;51.478;5.694;2023-09-12T02:54:15;17.70;99.90
46676;DHT22;32412;51.478;5.694;2023-09-12T02:56:40;17.70;99.90
46676;DHT22;32412;51.478;5.694;2023-09-12T02:59:06;17.70;99.90
46676;DHT22;32412;51.478;5.694;2023-09-12T03:01:32;17.70;99.90
46676;DHT22;32412;51.478;5.694;2023-09-12T03:03:58;17.70;99.90
46676;DHT22;32412;51.478;5.694;2023-09-12T03:06:23;17.70;99.90
46676;DHT22;32412;51.478;5.694;2023-09-12T03:08:50;17.70;99.90
46676;DHT22;32412;51.478;5.694;2023-09-12T03:11:15;17.60;99.90
46676;DHT22;32412;51.478;5.694;2023-09-12T03:13:41;17.50;99.90
46676;DHT22;32412;51.478;5.694;2023-09-12T03:16:11;17.50;99.90
46676;DHT22;32412;51.478;5.694;2023-09-12T03:18:37;17.40;99.90
46676;DHT22;32412;51.478;5.694;2023-09-12T03:21:03;17.40;99.90
46676;DHT22;32412;51.478;5.694;2023-09-12T03:23:28;17.50;99.90
46676;DHT22;32412;51.478;5.694;2023-09-12T03:25:54;17.40;99.90
46676;DHT22;32412;51.478;5.694;2023-09-12T03:28:20;17.40;99.90
46676;DHT22;32412;51.478;5.694;2023-09-12T03:30:46;17.40;99.90
46676;DHT22;32412;51.478;5.694;2023-09-12T03:33:11;17.40;99.90
46676;DHT22;32412;51.478;5.694;2023-09-12T03:35:43;17.40;99.90
46676;DHT22;32412;51.478;5.694;2023-09-12T03:38:08;17.40;99.90
46676;DHT22;32412;51.478;5.694;2023-09-12T03:40:34;17.40;99.90
46676;DHT22;32412;51.478;5.694;2023-09-12T03:43:00;17.40;99.90
46676;DHT22;32412;51.478;5.694;2023-09-12T03:45:25;17.40;99.90
46676;DHT22;32412;51.478;5.694;2023-09-12T03:47:51;17.40;99.90
46676;DHT22;32412;51.478;5.694;2023-09-12T03:50:17;17.40;99.90
46676;DHT22;32412;51.478;5.694;2023-09-12T03:52:43;17.40;99.90
46676;DHT22;32412;51.478;5.694;2023-09-12T03:55:08;17.40;99.90
46676;DHT22;32412;51.478;5.694;2023-09-12T03:57:34;17.40;99.90
46676;DHT22;32412;51.478;5.694;2023-09-12T04:00:00;17.40;99.90
46676;DHT22;32412;51.478;5.694;2023-09-12T04:02:26;17.40;99.90
46676;DHT22;32412;51.478;5.694;2023-09-12T04:04:51;17.50;99.90
46676;DHT22;32412;51.478;5.694;2023-09-12T04:07:17;17.50;99.90
46676;DHT22;32412;51.478;5.694;2023-09-12T04:09:43;17.50;99.90
46676;DHT22;32412;51.478;5.694;2023-09-12T04:12:09;17.50;99.90
46676;DHT22;32412;51.478;5.694;2023-09-12T04:14:35;17.50;99.90
46676;DHT22;32412;51.478;5.694;2023-09-12T04:17:01;17.60;99.90
46676;DHT22;32412;51.478;5.694;2023-09-12T04:19:27;17.60;99.90
46676;DHT22;32412;51.478;5.694;2023-09-12T04:21:53;17.50;99.90
46676;DHT22;32412;51.478;5.694;2023-09-12T04:24:18;17.60;99.90
46676;DHT22;32412;51.478;5.694;2023-09-12T04:26:44;17.60;99.90
46676;DHT22;32412;51.478;5.694;2023-09-12T04:29:10;17.50;99.90
46676;DHT22;32412;51.478;5.694;2023-09-12T04:31:36;17.60;99.90
46676;DHT22;32412;51.478;5.694;2023-09-12T04:34:02;17.60;99.90
46676;DHT22;32412;51.478;5.694;2023-09-12T04:36:28;17.70;99.90
46676;DHT22;32412;51.478;5.694;2023-09-12T04:38:53;17.70;99.90
46676;DHT22;32412;51.478;5.694;2023-09-12T04:41:19;17.70;99.90
46676;DHT22;32412;51.478;5.694;2023-09-12T04:43:45;17.80;99.90
46676;DHT22;32412;51.478;5.694;2023-09-12T04:46:11;17.80;99.90
46676;DHT22;32412;51.478;5.694;2023-09-12T04:48:37;17.80;99.90
46676;DHT22;32412;51.478;5.694;2023-09-12T04:51:03;17.80;99.90
46676;DHT22;32412;51.478;5.694;2023-09-12T04:53:29;17.80;99.90
46676;DHT22;32412;51.478;5.694;2023-09-12T04:56:03;17.90;99.90
46676;DHT22;32412;51.478;5.694;2023-09-12T04:58:29;17.90;99.90
46676;DHT22;32412;51.478;5.694;2023-09-12T05:00:55;18.00;99.90
46676;DHT22;32412;51.478;5.694;2023-09-12T05:03:24;18.00;99.90
46676;DHT22;32412;51.478;5.694;2023-09-12T05:05:50;18.10;99.90
46676;DHT22;32412;51.478;5.694;2023-09-12T05:08:16;18.10;99.90
46676;DHT22;32412;51.478;5.694;2023-09-12T05:10:46;18.10;99.90
46676;DHT22;32412;51.478;5.694;2023-09-12T05:13:12;18.10;99.90
46676;DHT22;32412;51.478;5.694;2023-09-12T05:15:39;18.10;99.90
46676;DHT22;32412;51.478;5.694;2023-09-12T05:18:06;18.10;99.90
46676;DHT22;32412;51.478;5.694;2023-09-12T05:20:35;18.10;99.90
46676;DHT22;32412;51.478;5.694;2023-09-12T05:23:00;18.10;99.90
46676;DHT22;32412;51.478;5.694;2023-09-12T05:25:26;18.10;99.90
46676;DHT22;32412;51.478;5.694;2023-09-12T05:27:52;18.10;99.90
46676;DHT22;32412;51.478;5.694;2023-09-12T05:30:18;18.10;99.90
46676;DHT22;32412;51.478;5.694;2023-09-12T05:32:44;18.10;99.90
46676;DHT22;32412;51.478;5.694;2023-09-12T05:35:10;18.10;99.90
46676;DHT22;32412;51.478;5.694;2023-09-12T05:43:38;18.10;99.90
46676;DHT22;32412;51.478;5.694;2023-09-12T05:49:26;18.20;99.90
46676;DHT22;32412;51.478;5.694;2023-09-12T05:51:51;18.20;99.90
46676;DHT22;32412;51.478;5.694;2023-09-12T05:54:17;18.20;99.90
46676;DHT22;32412;51.478;5.694;2023-09-12T05:56:44;18.20;99.90
46676;DHT22;32412;51.478;5.694;2023-09-12T05:59:10;18.20;99.90
46676;DHT22;32412;51.478;5.694;2023-09-12T06:01:35;18.20;99.90
46676;DHT22;32412;51.478;5.694;2023-09-12T06:04:01;18.20;99.90
46676;DHT22;32412;51.478;5.694;2023-09-12T06:06:35;18.30;99.90
46676;DHT22;32412;51.478;5.694;2023-09-12T06:09:00;18.30;99.90
46676;DHT22;32412;51.478;5.694;2023-09-12T06:11:26;18.30;99.90
46676;DHT22;32412;51.478;5.694;2023-09-12T06:13:52;18.30;99.90
46676;DHT22;32412;51.478;5.694;2023-09-12T06:16:17;18.30;99.90
46676;DHT22;32412;51.478;5.694;2023-09-12T06:18:43;18.20;99.90
46676;DHT22;32412;51.478;5.694;2023-09-12T06:21:08;18.20;99.90
46676;DHT22;32412;51.478;5.694;2023-09-12T06:23:35;18.20;99.90
46676;DHT22;32412;51.478;5.694;2023-09-12T06:26:00;18.20;99.90
46676;DHT22;32412;51.478;5.694;2023-09-12T06:28:27;18.20;99.90
46676;DHT22;32412;51.478;5.694;2023-09-12T06:30:53;18.20;99.90
46676;DHT22;32412;51.478;5.694;2023-09-12T06:33:19;18.30;99.90
46676;DHT22;32412;51.478;5.694;2023-09-12T06:35:51;18.30;99.90
46676;DHT22;32412;51.478;5.694;2023-09-12T06:38:19;18.30;99.90
46676;DHT22;32412;51.478;5.694;2023-09-12T06:40:45;18.30;99.90
46676;DHT22;32412;51.478;5.694;2023-09-12T06:43:11;18.30;99.90
46676;DHT22;32412;51.478;5.694;2023-09-12T06:45:37;18.30;99.90
46676;DHT22;32412;51.478;5.694;2023-09-12T06:48:04;18.30;99.90
46676;DHT22;32412;51.478;5.694;2023-09-12T06:50:30;18.30;99.90
46676;DHT22;32412;51.478;5.694;2023-09-12T06:52:56;18.30;99.90
46676;DHT22;32412;51.478;5.694;2023-09-12T06:55:21;18.40;99.90
46676;DHT22;32412;51.478;5.694;2023-09-12T06:57:47;18.40;99.90
46676;DHT22;32412;51.478;5.694;2023-09-12T07:00:13;18.50;99.90
46676;DHT22;32412;51.478;5.694;2023-09-12T07:02:39;18.60;99.90
46676;DHT22;32412;51.478;5.694;2023-09-12T07:05:05;18.60;99.90
46676;DHT22;32412;51.478;5.694;2023-09-12T07:07:31;18.70;99.90
46676;DHT22;32412;51.478;5.694;2023-09-12T07:09:57;18.80;99.90
46676;DHT22;32412;51.478;5.694;2023-09-12T07:12:25;18.80;99.90
46676;DHT22;32412;51.478;5.694;2023-09-12T07:14:54;18.90;99.90
46676;DHT22;32412;51.478;5.694;2023-09-12T07:17:21;19.00;99.90
46676;DHT22;32412;51.478;5.694;2023-09-12T07:19:47;19.00;99.90
46676;DHT22;32412;51.478;5.694;2023-09-12T07:22:14;19.10;99.90
46676;DHT22;32412;51.478;5.694;2023-09-12T07:24:39;19.10;99.90
46676;DHT22;32412;51.478;5.694;2023-09-12T07:27:05;19.40;99.90
46676;DHT22;32412;51.478;5.694;2023-09-12T07:29:31;19.40;99.90
46676;DHT22;32412;51.478;5.694;2023-09-12T07:31:56;19.30;99.90
46676;DHT22;32412;51.478;5.694;2023-09-12T07:34:24;19.30;99.90
46676;DHT22;32412;51.478;5.694;2023-09-12T07:36:50;19.50;99.90
46676;DHT22;32412;51.478;5.694;2023-09-12T07:39:17;19.50;99.90
46676;DHT22;32412;51.478;5.694;2023-09-12T07:41:43;19.80;99.90
46676;DHT22;32412;51.478;5.694;2023-09-12T07:44:08;20.00;99.90
46676;DHT22;32412;51.478;5.694;2023-09-12T07:46:37;20.10;99.90
46676;DHT22;32412;51.478;5.694;2023-09-12T07:49:04;20.20;99.90
46676;DHT22;32412;51.478;5.694;2023-09-12T07:51:29;20.20;99.90
46676;DHT22;32412;51.478;5.694;2023-09-12T07:53:55;20.10;99.90
46676;DHT22;32412;51.478;5.694;2023-09-12T07:56:20;20.10;99.90
46676;DHT22;32412;51.478;5.694;2023-09-12T07:58:46;20.20;99.90
46676;DHT22;32412;51.478;5.694;2023-09-12T08:01:15;20.10;99.90
46676;DHT22;32412;51.478;5.694;2023-09-12T08:03:42;20.10;99.90
46676;DHT22;32412;51.478;5.694;2023-09-12T08:06:07;20.10;99.90
46676;DHT22;32412;51.478;5.694;2023-09-12T08:08:34;20.40;99.90
46676;DHT22;32412;51.478;5.694;2023-09-12T08:10:59;20.40;99.90
46676;DHT22;32412;51.478;5.694;2023-09-12T08:13:29;20.40;99.90
46676;DHT22;32412;51.478;5.694;2023-09-12T08:15:55;20.50;99.90
46676;DHT22;32412;51.478;5.694;2023-09-12T08:18:21;20.60;99.90
46676;DHT22;32412;51.478;5.694;2023-09-12T08:20:48;20.80;99.90
46676;DHT22;32412;51.478;5.694;2023-09-12T08:23:14;20.80;99.90
46676;DHT22;32412;51.478;5.694;2023-09-12T08:25:40;20.80;99.90
46676;DHT22;32412;51.478;5.694;2023-09-12T08:28:05;20.80;99.90
46676;DHT22;32412;51.478;5.694;2023-09-12T08:30:31;20.80;99.90
46676;DHT22;32412;51.478;5.694;2023-09-12T08:32:58;20.90;99.90
46676;DHT22;32412;51.478;5.694;2023-09-12T08:35:24;20.90;99.90
46676;DHT22;32412;51.478;5.694;2023-09-12T08:37:52;21.10;99.90
46676;DHT22;32412;51.478;5.694;2023-09-12T08:40:17;21.20;99.90
46676;DHT22;32412;51.478;5.694;2023-09-12T08:42:44;21.40;99.90
46676;DHT22;32412;51.478;5.694;2023-09-12T08:45:15;21.60;99.90
46676;DHT22;32412;51.478;5.694;2023-09-12T08:47:43;21.80;99.90
46676;DHT22;32412;51.478;5.694;2023-09-12T08:50:14;21.90;99.90
46676;DHT22;32412;51.478;5.694;2023-09-12T08:52:46;21.80;99.90
46676;DHT22;32412;51.478;5.694;2023-09-12T08:55:12;22.00;99.90
46676;DHT22;32412;51.478;5.694;2023-09-12T08:57:40;22.20;99.90
46676;DHT22;32412;51.478;5.694;2023-09-12T09:00:06;22.30;99.90
46676;DHT22;32412;51.478;5.694;2023-09-12T09:02:35;22.40;99.90
46676;DHT22;32412;51.478;5.694;2023-09-12T09:05:02;22.70;99.90
46676;DHT22;32412;51.478;5.694;2023-09-12T09:07:36;22.80;99.90
46676;DHT22;32412;51.478;5.694;2023-09-12T09:10:04;23.00;99.90
46676;DHT22;32412;51.478;5.694;2023-09-12T09:12:39;23.20;99.90
46676;DHT22;32412;51.478;5.694;2023-09-12T09:15:25;23.40;99.90
46676;DHT22;32412;51.478;5.694;2023-09-12T09:17:52;23.40;99.90
46676;DHT22;32412;51.478;5.694;2023-09-12T09:20:23;23.50;99.90
46676;DHT22;32412;51.478;5.694;2023-09-12T09:25:23;23.80;99.90
46676;DHT22;32412;51.478;5.694;2023-09-12T09:27:49;24.10;99.90
46676;DHT22;32412;51.478;5.694;2023-09-12T09:30:14;24.60;99.90
46676;DHT22;32412;51.478;5.694;2023-09-12T09:32:40;24.90;99.90
46676;DHT22;32412;51.478;5.694;2023-09-12T09:35:06;25.20;99.90
46676;DHT22;32412;51.478;5.694;2023-09-12T09:37:33;25.60;99.90
46676;DHT22;32412;51.478;5.694;2023-09-12T09:39:58;25.60;99.90
46676;DHT22;32412;51.478;5.694;2023-09-12T09:42:24;25.80;99.90
46676;DHT22;32412;51.478;5.694;2023-09-12T09:44:54;26.60;99.90
46676;DHT22;32412;51.478;5.694;2023-09-12T09:47:19;26.70;99.90
46676;DHT22;32412;51.478;5.694;2023-09-12T09:49:45;26.40;99.90
46676;DHT22;32412;51.478;5.694;2023-09-12T09:52:12;25.90;99.90
46676;DHT22;32412;51.478;5.694;2023-09-12T09:54:43;25.30;99.90
46676;DHT22;32412;51.478;5.694;2023-09-12T09:57:10;25.00;99.90
46676;DHT22;32412;51.478;5.694;2023-09-12T09:59:36;25.10;99.90
46676;DHT22;32412;51.478;5.694;2023-09-12T10:02:02;25.60;99.90
46676;DHT22;32412;51.478;5.694;2023-09-12T10:04:32;25.80;99.90
46676;DHT22;32412;51.478;5.694;2023-09-12T10:07:00;26.20;99.90
46676;DHT22;32412;51.478;5.694;2023-09-12T10:09:27;26.40;99.90
46676;DHT22;32412;51.478;5.694;2023-09-12T10:11:55;26.50;99.90
46676;DHT22;32412;51.478;5.694;2023-09-12T10:14:22;26.90;99.90
46676;DHT22;32412;51.478;5.694;2023-09-12T10:16:49;26.90;99.90
46676;DHT22;32412;51.478;5.694;2023-09-12T10:19:23;27.30;99.90
46676;DHT22;32412;51.478;5.694;2023-09-12T10:22:17;27.30;99.90
46676;DHT22;32412;51.478;5.694;2023-09-12T10:24:44;27.20;99.90
46676;DHT22;32412;51.478;5.694;2023-09-12T10:27:11;26.80;99.90
46676;DHT22;32412;51.478;5.694;2023-09-12T10:29:37;26.40;99.90
46676;DHT22;32412;51.478;5.694;2023-09-12T10:32:03;26.40;99.90
46676;DHT22;32412;51.478;5.694;2023-09-12T10:34:31;26.90;99.90
46676;DHT22;32412;51.478;5.694;2023-09-12T10:36:58;27.10;99.90
46676;DHT22;32412;51.478;5.694;2023-09-12T10:39:31;26.80;99.90
46676;DHT22;32412;51.478;5.694;2023-09-12T10:41:58;26.80;99.90
46676;DHT22;32412;51.478;5.694;2023-09-12T10:44:25;27.00;99.90
46676;DHT22;32412;51.478;5.694;2023-09-12T10:46:51;28.00;99.90
46676;DHT22;32412;51.478;5.694;2023-09-12T10:49:19;27.90;99.90
46676;DHT22;32412;51.478;5.694;2023-09-12T10:51:46;28.20;99.90
46676;DHT22;32412;51.478;5.694;2023-09-12T10:54:35;28.00;99.90
46676;DHT22;32412;51.478;5.694;2023-09-12T10:57:09;27.50;99.90
46676;DHT22;32412;51.478;5.694;2023-09-12T11:02:37;28.50;99.90
46676;DHT22;32412;51.478;5.694;2023-09-12T11:05:05;29.70;99.90
46676;DHT22;32412;51.478;5.694;2023-09-12T11:10:15;31.30;99.90
46676;DHT22;32412;51.478;5.694;2023-09-12T11:12:43;31.50;99.90
46676;DHT22;32412;51.478;5.694;2023-09-12T11:15:09;31.80;99.90
46676;DHT22;32412;51.478;5.694;2023-09-12T11:17:40;31.80;99.90
46676;DHT22;32412;51.478;5.694;2023-09-12T11:20:06;30.90;99.90
46676;DHT22;32412;51.478;5.694;2023-09-12T11:22:39;30.50;99.90
46676;DHT22;32412;51.478;5.694;2023-09-12T11:25:19;30.70;99.90
46676;DHT22;32412;51.478;5.694;2023-09-12T11:30:24;29.60;99.90
46676;DHT22;32412;51.478;5.694;2023-09-12T11:32:57;29.30;99.90
46676;DHT22;32412;51.478;5.694;2023-09-12T11:35:24;29.70;99.90
46676;DHT22;32412;51.478;5.694;2023-09-12T11:37:54;30.50;99.90
46676;DHT22;32412;51.478;5.694;2023-09-12T11:40:41;30.80;99.90
46676;DHT22;32412;51.478;5.694;2023-09-12T11:43:08;31.50;99.90
46676;DHT22;32412;51.478;5.694;2023-09-12T11:45:44;30.40;99.90
46676;DHT22;32412;51.478;5.694;2023-09-12T11:48:10;31.10;99.90
46676;DHT22;32412;51.478;5.694;2023-09-12T11:50:36;31.20;99.90
46676;DHT22;32412;51.478;5.694;2023-09-12T11:55:49;30.50;99.90
46676;DHT22;32412;51.478;5.694;2023-09-12T11:58:18;30.90;99.90
46676;DHT22;32412;51.478;5.694;2023-09-12T12:00:50;31.60;99.90
46676;DHT22;32412;51.478;5.694;2023-09-12T12:03:17;31.10;99.90
46676;DHT22;32412;51.478;5.694;2023-09-12T12:05:43;30.40;99.90
46676;DHT22;32412;51.478;5.694;2023-09-12T12:08:10;29.50;99.90
46676;DHT22;32412;51.478;5.694;2023-09-12T12:10:36;28.70;99.90
46676;DHT22;32412;51.478;5.694;2023-09-12T12:13:04;28.20;99.90
46676;DHT22;32412;51.478;5.694;2023-09-12T12:15:30;27.60;99.90
46676;DHT22;32412;51.478;5.694;2023-09-12T12:17:56;27.20;99.90
46676;DHT22;32412;51.478;5.694;2023-09-12T12:20:22;27.00;99.90
46676;DHT22;32412;51.478;5.694;2023-09-12T12:22:50;26.60;99.90
46676;DHT22;32412;51.478;5.694;2023-09-12T12:25:18;26.40;99.90
46676;DHT22;32412;51.478;5.694;2023-09-12T12:27:44;26.30;99.90
46676;DHT22;32412;51.478;5.694;2023-09-12T12:30:12;26.20;99.90
46676;DHT22;32412;51.478;5.694;2023-09-12T12:32:41;26.20;99.90
46676;DHT22;32412;51.478;5.694;2023-09-12T12:35:16;26.20;99.90
46676;DHT22;32412;51.478;5.694;2023-09-12T12:37:42;26.60;99.90
46676;DHT22;32412;51.478;5.694;2023-09-12T12:40:12;27.00;99.90
46676;DHT22;32412;51.478;5.694;2023-09-12T12:42:39;27.00;99.90
46676;DHT22;32412;51.478;5.694;2023-09-12T12:45:15;27.20;99.90
46676;DHT22;32412;51.478;5.694;2023-09-12T12:47:41;27.10;99.90
46676;DHT22;32412;51.478;5.694;2023-09-12T12:50:15;26.70;99.90
46676;DHT22;32412;51.478;5.694;2023-09-12T12:52:42;26.20;99.90
46676;DHT22;32412;51.478;5.694;2023-09-12T12:55:10;26.10;99.90
46676;DHT22;32412;51.478;5.694;2023-09-12T12:57:40;25.90;99.90
46676;DHT22;32412;51.478;5.694;2023-09-12T13:03:29;25.60;99.90
46676;DHT22;32412;51.478;5.694;2023-09-12T13:05:56;25.50;99.90
46676;DHT22;32412;51.478;5.694;2023-09-12T13:08:21;25.40;99.90
46676;DHT22;32412;51.478;5.694;2023-09-12T13:10:50;25.40;99.90
46676;DHT22;32412;51.478;5.694;2023-09-12T13:13:16;25.40;99.90
46676;DHT22;32412;51.478;5.694;2023-09-12T13:15:42;25.40;99.90
46676;DHT22;32412;51.478;5.694;2023-09-12T13:18:08;25.50;99.90
46676;DHT22;32412;51.478;5.694;2023-09-12T13:20:36;25.50;99.90
46676;DHT22;32412;51.478;5.694;2023-09-12T13:23:02;25.60;99.90
46676;DHT22;32412;51.478;5.694;2023-09-12T13:25:28;25.80;99.90
46676;DHT22;32412;51.478;5.694;2023-09-12T13:27:53;26.30;99.90
46676;DHT22;32412;51.478;5.694;2023-09-12T13:30:22;26.70;99.90
46676;DHT22;32412;51.478;5.694;2023-09-12T13:32:47;27.00;99.90
46676;DHT22;32412;51.478;5.694;2023-09-12T13:35:13;27.10;99.90
46676;DHT22;32412;51.478;5.694;2023-09-12T13:37:39;27.20;99.90
46676;DHT22;32412;51.478;5.694;2023-09-12T13:40:05;27.10;99.90
46676;DHT22;32412;51.478;5.694;2023-09-12T13:42:33;26.80;99.90
46676;DHT22;32412;51.478;5.694;2023-09-12T13:44:59;26.80;99.90
46676;DHT22;32412;51.478;5.694;2023-09-12T13:47:25;26.50;99.90
46676;DHT22;32412;51.478;5.694;2023-09-12T13:49:51;26.10;99.90
46676;DHT22;32412;51.478;5.694;2023-09-12T13:52:20;25.70;99.90
46676;DHT22;32412;51.478;5.694;2023-09-12T13:54:46;25.40;99.90
46676;DHT22;32412;51.478;5.694;2023-09-12T13:57:15;25.10;99.90
46676;DHT22;32412;51.478;5.694;2023-09-12T13:59:41;25.40;99.90
46676;DHT22;32412;51.478;5.694;2023-09-12T14:02:07;25.70;99.90
46676;DHT22;32412;51.478;5.694;2023-09-12T14:04:33;25.90;99.90
46676;DHT22;32412;51.478;5.694;2023-09-12T14:06:58;26.00;99.90
46676;DHT22;32412;51.478;5.694;2023-09-12T14:09:24;25.90;99.90
46676;DHT22;32412;51.478;5.694;2023-09-12T14:11:50;25.70;99.90
46676;DHT22;32412;51.478;5.694;2023-09-12T14:14:15;25.70;99.90
46676;DHT22;32412;51.478;5.694;2023-09-12T14:16:43;25.60;99.90
46676;DHT22;32412;51.478;5.694;2023-09-12T14:19:09;25.80;99.90
46676;DHT22;32412;51.478;5.694;2023-09-12T14:21:35;25.90;99.90
46676;DHT22;32412;51.478;5.694;2023-09-12T14:24:01;25.90;99.90
46676;DHT22;32412;51.478;5.694;2023-09-12T14:26:27;25.80;99.90
46676;DHT22;32412;51.478;5.694;2023-09-12T14:28:52;25.40;99.90
46676;DHT22;32412;51.478;5.694;2023-09-12T14:31:18;25.40;99.90
46676;DHT22;32412;51.478;5.694;2023-09-12T14:33:44;25.40;99.90
46676;DHT22;32412;51.478;5.694;2023-09-12T14:36:09;25.40;99.90
46676;DHT22;32412;51.478;5.694;2023-09-12T14:38:36;25.40;99.90
46676;DHT22;32412;51.478;5.694;2023-09-12T14:41:01;25.70;99.90
46676;DHT22;32412;51.478;5.694;2023-09-12T14:43:28;25.80;99.90
46676;DHT22;32412;51.478;5.694;2023-09-12T14:45:57;25.70;99.90
46676;DHT22;32412;51.478;5.694;2023-09-12T14:48:22;25.80;99.90
46676;DHT22;32412;51.478;5.694;2023-09-12T14:50:48;25.70;99.90
46676;DHT22;32412;51.478;5.694;2023-09-12T14:53:15;25.70;99.90
46676;DHT22;32412;51.478;5.694;2023-09-12T14:55:41;25.60;99.90
46676;DHT22;32412;51.478;5.694;2023-09-12T14:58:07;25.60;99.90
46676;DHT22;32412;51.478;5.694;2023-09-12T15:00:33;25.50;99.90
46676;DHT22;32412;51.478;5.694;2023-09-12T15:03:00;25.50;99.90
46676;DHT22;32412;51.478;5.694;2023-09-12T15:05:26;25.40;99.90
46676;DHT22;32412;51.478;5.694;2023-09-12T15:07:52;25.40;99.90
46676;DHT22;32412;51.478;5.694;2023-09-12T15:10:18;25.40;99.90
46676;DHT22;32412;51.478;5.694;2023-09-12T15:12:44;25.50;99.90
46676;DHT22;32412;51.478;5.694;2023-09-12T15:15:10;25.40;99.90
46676;DHT22;32412;51.478;5.694;2023-09-12T15:17:36;25.40;99.90
46676;DHT22;32412;51.478;5.694;2023-09-12T15:20:02;25.40;99.90
46676;DHT22;32412;51.478;5.694;2023-09-12T15:22:31;25.30;99.90
46676;DHT22;32412;51.478;5.694;2023-09-12T15:24:57;25.30;99.90
46676;DHT22;32412;51.478;5.694;2023-09-12T15:27:23;25.20;99.90
46676;DHT22;32412;51.478;5.694;2023-09-12T15:29:48;25.10;99.90
46676;DHT22;32412;51.478;5.694;2023-09-12T15:32:14;25.00;99.90
46676;DHT22;32412;51.478;5.694;2023-09-12T15:34:40;25.00;99.90
46676;DHT22;32412;51.478;5.694;2023-09-12T15:37:08;25.00;99.90
46676;DHT22;32412;51.478;5.694;2023-09-12T15:39:34;25.00;99.90
46676;DHT22;32412;51.478;5.694;2023-09-12T15:41:59;25.00;99.90
46676;DHT22;32412;51.478;5.694;2023-09-12T15:44:25;25.00;99.90
46676;DHT22;32412;51.478;5.694;2023-09-12T15:46:51;25.00;99.90
46676;DHT22;32412;51.478;5.694;2023-09-12T15:49:19;25.00;99.90
46676;DHT22;32412;51.478;5.694;2023-09-12T15:51:44;25.00;99.90
46676;DHT22;32412;51.478;5.694;2023-09-12T15:54:10;25.10;99.90
46676;DHT22;32412;51.478;5.694;2023-09-12T15:56:36;25.00;99.90
46676;DHT22;32412;51.478;5.694;2023-09-12T15:59:02;25.00;99.90
46676;DHT22;32412;51.478;5.694;2023-09-12T16:01:28;25.00;99.90